sensor_id;sensor_type;location;lat;lon;timestamp;pressure;altitude;pressure_sealevel;temperature;humidity
74881;BME280;63427;49.654;6.596;2024-03-02T00:01:59;98252.01;;;11.82;28.91
74881;BME280;63427;49.654;6.596;2024-03-02T00:04:25;98245.84;;;11.69;28.63
74881;BME280;63427;49.654;6.596;2024-03-02T00:06:55;98240.30;;;11.65;29.35
74881;BME280;63427;49.654;6.596;2024-03-02T00:09:23;98244.91;;;11.84;28.79
74881;BME280;63427;49.654;6.596;2024-03-02T00:11:41;98246.14;;;11.73;28.93
74881;BME280;63427;49.654;6.596;2024-03-02T00:14:07;98249.67;;;10.93;28.82
74881;BME280;63427;49.654;6.596;2024-03-02T00:16:32;98254.81;;;11.56;29.39
74881;BME280;63427;49.654;6.596;2024-03-02T00:19:02;98250.77;;;11.85;28.91
74881;BME280;63427;49.654;6.596;2024-03-02T00:21:33;98241.14;;;11.68;29.16
74881;BME280;63427;49.654;6.596;2024-03-02T00:23:50;98250.23;;;11.50;29.28
74881;BME280;63427;49.654;6.596;2024-03-02T00:26:21;98257.40;;;11.43;29.12
74881;BME280;63427;49.654;6.596;2024-03-02T00:28:40;98258.28;;;11.69;28.78
74881;BME280;63427;49.654;6.596;2024-03-02T00:31:08;98254.95;;;11.54;28.66
74881;BME280;63427;49.654;6.596;2024-03-02T00:33:33;98252.79;;;11.88;29.09
74881;BME280;63427;49.654;6.596;2024-03-02T00:36:03;98260.62;;;11.29;29.14
74881;BME280;63427;49.654;6.596;2024-03-02T00:38:23;98263.87;;;11.03;29.65
74881;BME280;63427;49.654;6.596;2024-03-02T00:40:48;98263.06;;;11.13;29.49
74881;BME280;63427;49.654;6.596;2024-03-02T00:43:47;98261.65;;;10.99;29.39
74881;BME280;63427;49.654;6.596;2024-03-02T00:45:40;98260.32;;;11.40;29.37
74881;BME280;63427;49.654;6.596;2024-03-02T00:48:07;98255.59;;;11.18;29.03
74881;BME280;63427;49.654;6.596;2024-03-02T00:50:34;98256.22;;;11.11;29.20
74881;BME280;63427;49.654;6.596;2024-03-02T00:52:56;98264.46;;;11.14;29.91
74881;BME280;63427;49.654;6.596;2024-03-02T00:55:22;98258.19;;;11.21;29.96
74881;BME280;63427;49.654;6.596;2024-03-02T00:57:47;98254.05;;;10.32;30.75
74881;BME280;63427;49.654;6.596;2024-03-02T01:00:15;98251.03;;;10.67;30.44
74881;BME280;63427;49.654;6.596;2024-03-02T01:05:05;98249.54;;;10.98;29.85
74881;BME280;63427;49.654;6.596;2024-03-02T01:09:55;98247.68;;;10.73;30.18
74881;BME280;63427;49.654;6.596;2024-03-02T01:14:47;98249.75;;;10.22;30.67
74881;BME280;63427;49.654;6.596;2024-03-02T01:17:12;98243.41;;;10.98;30.30
74881;BME280;63427;49.654;6.596;2024-03-02T01:19:38;98247.11;;;11.17;30.33
74881;BME280;63427;49.654;6.596;2024-03-02T01:22:03;98238.63;;;11.28;30.03
74881;BME280;63427;49.654;6.596;2024-03-02T01:24:29;98242.75;;;11.41;29.89
74881;BME280;63427;49.654;6.596;2024-03-02T01:26:55;98244.78;;;11.20;29.63
74881;BME280;63427;49.654;6.596;2024-03-02T01:29:22;98241.23;;;11.54;29.43
74881;BME280;63427;49.654;6.596;2024-03-02T01:31:46;98239.58;;;11.60;29.66
74881;BME280;63427;49.654;6.596;2024-03-02T01:34:11;98239.37;;;11.46;29.22
74881;BME280;63427;49.654;6.596;2024-03-02T01:36:37;98250.18;;;11.38;29.71
74881;BME280;63427;49.654;6.596;2024-03-02T01:39:03;98243.61;;;11.74;28.83
74881;BME280;63427;49.654;6.596;2024-03-02T01:41:32;98240.83;;;11.48;29.55
74881;BME280;63427;49.654;6.596;2024-03-02T01:43:55;98237.55;;;11.57;29.58
74881;BME280;63427;49.654;6.596;2024-03-02T01:46:20;98240.59;;;11.62;29.37
74881;BME280;63427;49.654;6.596;2024-03-02T01:48:45;98244.28;;;11.39;29.76
74881;BME280;63427;49.654;6.596;2024-03-02T01:51:10;98241.13;;;11.34;29.55
74881;BME280;63427;49.654;6.596;2024-03-02T01:53:36;98237.98;;;11.46;29.90
74881;BME280;63427;49.654;6.596;2024-03-02T01:56:02;98241.49;;;11.32;30.06
74881;BME280;63427;49.654;6.596;2024-03-02T01:58:28;98254.94;;;11.54;29.70
74881;BME280;63427;49.654;6.596;2024-03-02T02:01:06;98245.93;;;11.44;29.77
74881;BME280;63427;49.654;6.596;2024-03-02T02:03:18;98239.23;;;10.87;30.26
74881;BME280;63427;49.654;6.596;2024-03-02T02:05:44;98249.38;;;10.90;31.08
74881;BME280;63427;49.654;6.596;2024-03-02T02:08:10;98249.98;;;10.50;31.62
74881;BME280;63427;49.654;6.596;2024-03-02T02:10:36;98245.53;;;10.98;31.06
74881;BME280;63427;49.654;6.596;2024-03-02T02:13:01;98251.39;;;11.46;30.55
74881;BME280;63427;49.654;6.596;2024-03-02T02:17:53;98243.83;;;11.29;29.94
74881;BME280;63427;49.654;6.596;2024-03-02T02:20:18;98245.78;;;11.26;30.59
74881;BME280;63427;49.654;6.596;2024-03-02T02:25:09;98260.11;;;11.78;29.91
74881;BME280;63427;49.654;6.596;2024-03-02T02:27:34;98255.40;;;11.88;29.08
74881;BME280;63427;49.654;6.596;2024-03-02T02:30:02;98248.79;;;11.50;29.95
74881;BME280;63427;49.654;6.596;2024-03-02T02:32:25;98261.35;;;11.21;31.04
74881;BME280;63427;49.654;6.596;2024-03-02T02:38:01;98255.37;;;11.32;30.34
74881;BME280;63427;49.654;6.596;2024-03-02T02:39:42;98257.07;;;11.92;30.10
74881;BME280;63427;49.654;6.596;2024-03-02T02:42:08;98246.21;;;10.07;31.07
74881;BME280;63427;49.654;6.596;2024-03-02T02:44:33;98244.06;;;10.98;31.09
74881;BME280;63427;49.654;6.596;2024-03-02T02:49:24;98244.25;;;11.18;30.30
74881;BME280;63427;49.654;6.596;2024-03-02T02:52:13;98242.68;;;11.79;30.00
74881;BME280;63427;49.654;6.596;2024-03-02T02:54:16;98239.39;;;11.95;29.93
74881;BME280;63427;49.654;6.596;2024-03-02T02:56:41;98243.94;;;11.38;30.22
74881;BME280;63427;49.654;6.596;2024-03-02T02:59:07;98244.55;;;11.60;30.34
74881;BME280;63427;49.654;6.596;2024-03-02T03:01:59;98241.36;;;11.64;30.19
74881;BME280;63427;49.654;6.596;2024-03-02T03:03:58;98239.28;;;11.95;29.96
74881;BME280;63427;49.654;6.596;2024-03-02T03:06:23;98237.25;;;11.25;30.27
74881;BME280;63427;49.654;6.596;2024-03-02T03:08:49;98242.63;;;11.92;29.97
74881;BME280;63427;49.654;6.596;2024-03-02T03:11:15;98240.17;;;11.37;30.32
74881;BME280;63427;49.654;6.596;2024-03-02T03:13:51;98244.15;;;11.84;30.45
74881;BME280;63427;49.654;6.596;2024-03-02T03:16:06;98247.79;;;11.54;30.25
74881;BME280;63427;49.654;6.596;2024-03-02T03:18:31;98257.63;;;11.38;31.07
74881;BME280;63427;49.654;6.596;2024-03-02T03:20:57;98249.27;;;11.53;30.72
74881;BME280;63427;49.654;6.596;2024-03-02T03:23:47;98249.29;;;11.46;31.12
74881;BME280;63427;49.654;6.596;2024-03-02T03:25:48;98253.75;;;11.83;30.72
74881;BME280;63427;49.654;6.596;2024-03-02T03:28:14;98257.59;;;11.07;31.09
74881;BME280;63427;49.654;6.596;2024-03-02T03:30:40;98259.14;;;11.69;31.08
74881;BME280;63427;49.654;6.596;2024-03-02T03:33:10;98264.05;;;11.13;31.82
74881;BME280;63427;49.654;6.596;2024-03-02T03:35:30;98258.51;;;11.31;31.86
74881;BME280;63427;49.654;6.596;2024-03-02T03:37:56;98259.00;;;11.46;31.76
74881;BME280;63427;49.654;6.596;2024-03-02T03:40:21;98268.00;;;10.78;32.85
74881;BME280;63427;49.654;6.596;2024-03-02T03:42:47;98272.57;;;10.81;32.43
74881;BME280;63427;49.654;6.596;2024-03-02T03:45:13;98270.53;;;11.25;32.14
74881;BME280;63427;49.654;6.596;2024-03-02T03:47:38;98272.06;;;10.95;33.02
74881;BME280;63427;49.654;6.596;2024-03-02T03:50:07;98264.09;;;10.88;33.15
74881;BME280;63427;49.654;6.596;2024-03-02T03:54:55;98274.63;;;11.00;33.28
74881;BME280;63427;49.654;6.596;2024-03-02T03:57:21;98277.92;;;10.71;33.02
74881;BME280;63427;49.654;6.596;2024-03-02T03:59:53;98282.93;;;11.03;33.03
74881;BME280;63427;49.654;6.596;2024-03-02T04:02:12;98289.85;;;10.42;34.18
74881;BME280;63427;49.654;6.596;2024-03-02T04:04:38;98290.81;;;10.32;33.71
74881;BME280;63427;49.654;6.596;2024-03-02T04:07:04;98291.64;;;10.77;33.32
74881;BME280;63427;49.654;6.596;2024-03-02T04:09:29;98295.08;;;10.63;33.83
74881;BME280;63427;49.654;6.596;2024-03-02T04:11:54;98291.66;;;10.57;33.95
74881;BME280;63427;49.654;6.596;2024-03-02T04:14:20;98293.64;;;10.97;33.91
74881;BME280;63427;49.654;6.596;2024-03-02T04:19:11;98301.74;;;11.00;33.28
74881;BME280;63427;49.654;6.596;2024-03-02T04:21:37;98303.61;;;11.14;33.30
74881;BME280;63427;49.654;6.596;2024-03-02T04:24:02;98293.78;;;11.21;32.97
74881;BME280;63427;49.654;6.596;2024-03-02T04:26:28;98292.99;;;10.83;33.57
74881;BME280;63427;49.654;6.596;2024-03-02T04:28:54;98301.25;;;10.96;34.34
74881;BME280;63427;49.654;6.596;2024-03-02T04:31:19;98295.81;;;10.72;34.49
74881;BME280;63427;49.654;6.596;2024-03-02T04:33:45;98294.69;;;10.72;34.84
74881;BME280;63427;49.654;6.596;2024-03-02T04:41:07;98307.77;;;11.09;33.86
74881;BME280;63427;49.654;6.596;2024-03-02T04:43:37;98304.98;;;11.49;33.42
74881;BME280;63427;49.654;6.596;2024-03-02T04:48:18;98309.24;;;11.37;33.69
74881;BME280;63427;49.654;6.596;2024-03-02T04:50:45;98306.69;;;11.47;33.78
74881;BME280;63427;49.654;6.596;2024-03-02T04:53:10;98304.62;;;11.57;33.66
74881;BME280;63427;49.654;6.596;2024-03-02T05:00:27;98306.81;;;11.29;34.07
74881;BME280;63427;49.654;6.596;2024-03-02T05:02:52;98312.66;;;11.36;34.54
74881;BME280;63427;49.654;6.596;2024-03-02T05:06:12;98311.99;;;11.35;34.82
74881;BME280;63427;49.654;6.596;2024-03-02T05:07:43;98317.37;;;11.18;35.14
74881;BME280;63427;49.654;6.596;2024-03-02T05:11:03;98315.46;;;11.30;34.76
74881;BME280;63427;49.654;6.596;2024-03-02T05:15:02;98315.26;;;11.15;35.58
74881;BME280;63427;49.654;6.596;2024-03-02T05:17:26;98318.74;;;11.19;35.79
74881;BME280;63427;49.654;6.596;2024-03-02T05:19:51;98319.35;;;11.07;36.04
74881;BME280;63427;49.654;6.596;2024-03-02T05:22:17;98317.98;;;10.83;36.11
74881;BME280;63427;49.654;6.596;2024-03-02T05:24:43;98319.96;;;10.98;36.35
74881;BME280;63427;49.654;6.596;2024-03-02T05:27:08;98322.44;;;10.59;37.05
74881;BME280;63427;49.654;6.596;2024-03-02T05:29:34;98317.26;;;10.84;36.77
74881;BME280;63427;49.654;6.596;2024-03-02T05:32:00;98321.11;;;10.88;37.03
74881;BME280;63427;49.654;6.596;2024-03-02T05:36:51;98321.19;;;10.95;37.03
74881;BME280;63427;49.654;6.596;2024-03-02T05:39:16;98323.12;;;11.11;36.83
74881;BME280;63427;49.654;6.596;2024-03-02T05:41:42;98318.88;;;11.09;36.90
74881;BME280;63427;49.654;6.596;2024-03-02T05:44:08;98319.84;;;11.15;36.95
74881;BME280;63427;49.654;6.596;2024-03-02T05:46:33;98317.02;;;10.59;37.89
74881;BME280;63427;49.654;6.596;2024-03-02T05:51:24;98316.94;;;11.02;38.19
74881;BME280;63427;49.654;6.596;2024-03-02T05:53:50;98310.96;;;10.97;37.92
74881;BME280;63427;49.654;6.596;2024-03-02T05:56:16;98311.47;;;11.10;38.44
74881;BME280;63427;49.654;6.596;2024-03-02T05:58:42;98311.37;;;10.65;38.62
74881;BME280;63427;49.654;6.596;2024-03-02T06:01:07;98309.62;;;11.03;38.38
74881;BME280;63427;49.654;6.596;2024-03-02T06:03:33;98310.24;;;10.76;38.69
74881;BME280;63427;49.654;6.596;2024-03-02T06:05:58;98312.39;;;10.61;38.68
74881;BME280;63427;49.654;6.596;2024-03-02T06:08:24;98310.98;;;10.90;38.85
74881;BME280;63427;49.654;6.596;2024-03-02T06:10:50;98308.97;;;10.61;38.86
74881;BME280;63427;49.654;6.596;2024-03-02T06:13:15;98306.47;;;11.06;39.05
74881;BME280;63427;49.654;6.596;2024-03-02T06:15:41;98313.12;;;10.65;39.13
74881;BME280;63427;49.654;6.596;2024-03-02T06:18:06;98317.58;;;10.60;39.34
74881;BME280;63427;49.654;6.596;2024-03-02T06:20:32;98319.60;;;10.35;39.80
74881;BME280;63427;49.654;6.596;2024-03-02T06:22:58;98323.14;;;10.45;39.49
74881;BME280;63427;49.654;6.596;2024-03-02T06:25:23;98323.78;;;9.95;39.86
74881;BME280;63427;49.654;6.596;2024-03-02T06:27:49;98320.85;;;10.40;39.84
74881;BME280;63427;49.654;6.596;2024-03-02T06:30:15;98321.28;;;10.55;39.54
74881;BME280;63427;49.654;6.596;2024-03-02T06:32:40;98322.26;;;10.39;39.77
74881;BME280;63427;49.654;6.596;2024-03-02T06:35:06;98327.16;;;9.90;40.17
74881;BME280;63427;49.654;6.596;2024-03-02T06:37:31;98329.45;;;10.59;39.51
74881;BME280;63427;49.654;6.596;2024-03-02T06:39:57;98326.38;;;10.46;39.76
74881;BME280;63427;49.654;6.596;2024-03-02T06:42:22;98329.81;;;10.64;39.16
74881;BME280;63427;49.654;6.596;2024-03-02T06:44:48;98332.48;;;10.88;38.91
74881;BME280;63427;49.654;6.596;2024-03-02T06:47:14;98337.47;;;10.90;38.74
74881;BME280;63427;49.654;6.596;2024-03-02T06:49:40;98332.06;;;10.51;38.43
74881;BME280;63427;49.654;6.596;2024-03-02T06:52:06;98329.36;;;10.60;38.80
74881;BME280;63427;49.654;6.596;2024-03-02T06:54:31;98328.53;;;11.11;38.57
74881;BME280;63427;49.654;6.596;2024-03-02T06:56:56;98325.22;;;11.01;38.31
74881;BME280;63427;49.654;6.596;2024-03-02T06:59:22;98337.97;;;10.43;38.58
74881;BME280;63427;49.654;6.596;2024-03-02T07:01:48;98329.35;;;10.94;38.11
74881;BME280;63427;49.654;6.596;2024-03-02T07:04:13;98335.23;;;10.68;38.39
74881;BME280;63427;49.654;6.596;2024-03-02T07:06:39;98335.97;;;10.37;38.75
74881;BME280;63427;49.654;6.596;2024-03-02T07:09:04;98336.10;;;11.01;38.13
74881;BME280;63427;49.654;6.596;2024-03-02T07:11:30;98337.94;;;11.13;38.07
74881;BME280;63427;49.654;6.596;2024-03-02T07:13:56;98344.15;;;11.04;38.11
74881;BME280;63427;49.654;6.596;2024-03-02T07:16:21;98353.39;;;11.02;38.46
74881;BME280;63427;49.654;6.596;2024-03-02T07:18:47;98345.43;;;11.01;37.99
74881;BME280;63427;49.654;6.596;2024-03-02T07:21:13;98346.33;;;11.40;37.21
74881;BME280;63427;49.654;6.596;2024-03-02T07:23:38;98350.17;;;11.54;37.15
74881;BME280;63427;49.654;6.596;2024-03-02T07:26:03;98353.68;;;11.51;36.80
74881;BME280;63427;49.654;6.596;2024-03-02T07:30:59;98357.16;;;11.75;36.45
74881;BME280;63427;49.654;6.596;2024-03-02T07:33:20;98357.36;;;11.43;36.53
74881;BME280;63427;49.654;6.596;2024-03-02T07:35:46;98355.91;;;12.23;35.56
74881;BME280;63427;49.654;6.596;2024-03-02T07:38:11;98354.42;;;11.79;35.32
74881;BME280;63427;49.654;6.596;2024-03-02T07:40:37;98358.45;;;12.28;34.79
74881;BME280;63427;49.654;6.596;2024-03-02T07:43:02;98358.47;;;12.02;35.34
74881;BME280;63427;49.654;6.596;2024-03-02T07:45:28;98356.16;;;11.74;34.14
74881;BME280;63427;49.654;6.596;2024-03-02T07:47:53;98357.77;;;12.06;33.63
74881;BME280;63427;49.654;6.596;2024-03-02T07:50:19;98357.17;;;12.01;34.15
74881;BME280;63427;49.654;6.596;2024-03-02T07:52:49;98351.45;;;12.25;33.35
74881;BME280;63427;49.654;6.596;2024-03-02T07:55:10;98354.18;;;12.18;33.86
74881;BME280;63427;49.654;6.596;2024-03-02T07:57:36;98356.70;;;12.52;33.22
74881;BME280;63427;49.654;6.596;2024-03-02T08:00:01;98363.70;;;12.22;33.33
74881;BME280;63427;49.654;6.596;2024-03-02T08:02:26;98358.30;;;12.57;33.22
74881;BME280;63427;49.654;6.596;2024-03-02T08:04:52;98362.97;;;12.76;33.31
74881;BME280;63427;49.654;6.596;2024-03-02T08:07:18;98366.16;;;13.04;32.48
74881;BME280;63427;49.654;6.596;2024-03-02T08:09:43;98369.84;;;12.58;32.27
74881;BME280;63427;49.654;6.596;2024-03-02T08:14:34;98374.70;;;13.31;32.19
74881;BME280;63427;49.654;6.596;2024-03-02T08:17:00;98369.63;;;13.05;32.41
74881;BME280;63427;49.654;6.596;2024-03-02T08:19:25;98363.29;;;13.53;31.98
74881;BME280;63427;49.654;6.596;2024-03-02T08:21:51;98361.44;;;12.99;31.32
74881;BME280;63427;49.654;6.596;2024-03-02T08:24:16;98357.26;;;13.17;32.25
74881;BME280;63427;49.654;6.596;2024-03-02T08:26:42;98355.78;;;13.41;32.61
74881;BME280;63427;49.654;6.596;2024-03-02T08:29:07;98353.95;;;13.57;32.49
74881;BME280;63427;49.654;6.596;2024-03-02T08:33:59;98355.88;;;13.10;32.10
74881;BME280;63427;49.654;6.596;2024-03-02T08:36:24;98355.67;;;13.13;32.37
74881;BME280;63427;49.654;6.596;2024-03-02T08:38:49;98349.10;;;13.60;31.82
74881;BME280;63427;49.654;6.596;2024-03-02T08:41:15;98351.83;;;13.79;31.70
74881;BME280;63427;49.654;6.596;2024-03-02T08:43:41;98356.42;;;13.52;31.77
74881;BME280;63427;49.654;6.596;2024-03-02T08:46:14;98361.35;;;13.30;31.46
74881;BME280;63427;49.654;6.596;2024-03-02T08:48:31;98353.72;;;13.35;31.44
74881;BME280;63427;49.654;6.596;2024-03-02T08:50:57;98351.04;;;13.82;31.56
74881;BME280;63427;49.654;6.596;2024-03-02T08:53:22;98360.82;;;14.15;31.57
74881;BME280;63427;49.654;6.596;2024-03-02T09:00:38;98368.46;;;13.41;30.86
74881;BME280;63427;49.654;6.596;2024-03-02T09:03:05;98366.59;;;13.71;31.21
74881;BME280;63427;49.654;6.596;2024-03-02T09:07:55;98369.20;;;14.47;30.73
74881;BME280;63427;49.654;6.596;2024-03-02T09:10:20;98375.47;;;14.59;29.97
74881;BME280;63427;49.654;6.596;2024-03-02T09:15:11;98382.29;;;14.56;29.41
74881;BME280;63427;49.654;6.596;2024-03-02T09:17:36;98378.53;;;13.58;30.20
74881;BME280;63427;49.654;6.596;2024-03-02T09:20:02;98378.59;;;13.48;30.94
74881;BME280;63427;49.654;6.596;2024-03-02T09:22:27;98378.60;;;13.73;30.85
74881;BME280;63427;49.654;6.596;2024-03-02T09:25:07;98378.04;;;13.18;32.76
74881;BME280;63427;49.654;6.596;2024-03-02T09:27:20;98375.32;;;13.30;33.19
74881;BME280;63427;49.654;6.596;2024-03-02T09:29:43;98371.52;;;13.91;33.05
74881;BME280;63427;49.654;6.596;2024-03-02T09:32:14;98373.21;;;14.04;32.31
74881;BME280;63427;49.654;6.596;2024-03-02T09:34:35;98373.24;;;14.26;32.16
74881;BME280;63427;49.654;6.596;2024-03-02T09:37:00;98369.31;;;14.45;32.04
74881;BME280;63427;49.654;6.596;2024-03-02T09:39:25;98376.84;;;14.47;30.94
74881;BME280;63427;49.654;6.596;2024-03-02T09:41:51;98372.14;;;13.92;32.00
74881;BME280;63427;49.654;6.596;2024-03-02T09:44:16;98372.30;;;14.40;32.09
74881;BME280;63427;49.654;6.596;2024-03-02T09:46:42;98364.38;;;14.35;31.30
74881;BME280;63427;49.654;6.596;2024-03-02T09:49:07;98365.89;;;14.67;32.00
74881;BME280;63427;49.654;6.596;2024-03-02T09:51:32;98354.07;;;15.08;31.06
74881;BME280;63427;49.654;6.596;2024-03-02T09:54:01;98343.30;;;14.50;31.54
74881;BME280;63427;49.654;6.596;2024-03-02T09:56:23;98336.68;;;14.84;30.85
74881;BME280;63427;49.654;6.596;2024-03-02T09:58:50;98327.06;;;15.40;30.71
74881;BME280;63427;49.654;6.596;2024-03-02T10:01:14;98321.23;;;16.28;29.74
74881;BME280;63427;49.654;6.596;2024-03-02T10:03:40;98321.93;;;16.74;29.45
74881;BME280;63427;49.654;6.596;2024-03-02T10:10:55;98318.73;;;17.05;27.57
74881;BME280;63427;49.654;6.596;2024-03-02T10:15:46;98318.17;;;17.19;26.90
74881;BME280;63427;49.654;6.596;2024-03-02T10:18:12;98312.96;;;16.34;27.56
74881;BME280;63427;49.654;6.596;2024-03-02T10:20:37;98318.67;;;16.73;27.88
74881;BME280;63427;49.654;6.596;2024-03-02T10:23:11;98313.85;;;16.88;27.94
74881;BME280;63427;49.654;6.596;2024-03-02T10:25:29;98318.22;;;17.04;27.84
74881;BME280;63427;49.654;6.596;2024-03-02T10:27:53;98317.07;;;17.68;27.30
74881;BME280;63427;49.654;6.596;2024-03-02T10:30:18;98312.32;;;17.41;27.54
74881;BME280;63427;49.654;6.596;2024-03-02T10:32:44;98306.57;;;17.87;26.99
74881;BME280;63427;49.654;6.596;2024-03-02T10:35:09;98299.45;;;18.12;25.91
74881;BME280;63427;49.654;6.596;2024-03-02T10:37:34;98302.50;;;18.21;26.12
74881;BME280;63427;49.654;6.596;2024-03-02T10:40:06;98296.90;;;18.01;25.79
74881;BME280;63427;49.654;6.596;2024-03-02T10:42:24;98293.07;;;18.88;25.74
74881;BME280;63427;49.654;6.596;2024-03-02T10:44:50;98290.62;;;18.68;24.78
74881;BME280;63427;49.654;6.596;2024-03-02T10:47:18;98293.27;;;18.30;24.87
74881;BME280;63427;49.654;6.596;2024-03-02T10:49:43;98299.92;;;17.94;25.90
74881;BME280;63427;49.654;6.596;2024-03-02T10:52:06;98303.55;;;18.32;25.59
74881;BME280;63427;49.654;6.596;2024-03-02T10:54:31;98304.07;;;17.20;26.29
74881;BME280;63427;49.654;6.596;2024-03-02T10:56:58;98296.33;;;17.51;26.20
74881;BME280;63427;49.654;6.596;2024-03-02T10:59:28;98287.56;;;18.33;25.87
74881;BME280;63427;49.654;6.596;2024-03-02T11:01:48;98289.35;;;18.08;25.25
74881;BME280;63427;49.654;6.596;2024-03-02T11:04:13;98282.73;;;18.63;24.84
74881;BME280;63427;49.654;6.596;2024-03-02T11:06:37;98283.97;;;18.48;25.41
74881;BME280;63427;49.654;6.596;2024-03-02T11:09:06;98276.84;;;18.58;24.20
74881;BME280;63427;49.654;6.596;2024-03-02T11:11:30;98272.80;;;18.89;24.23
74881;BME280;63427;49.654;6.596;2024-03-02T11:13:53;98268.38;;;18.24;24.22
74881;BME280;63427;49.654;6.596;2024-03-02T11:18:43;98263.09;;;19.21;23.68
74881;BME280;63427;49.654;6.596;2024-03-02T11:21:12;98251.51;;;19.87;24.78
74881;BME280;63427;49.654;6.596;2024-03-02T11:26:21;98246.48;;;18.20;24.64
74881;BME280;63427;49.654;6.596;2024-03-02T11:30:51;98233.91;;;19.25;23.57
74881;BME280;63427;49.654;6.596;2024-03-02T11:33:25;98238.85;;;19.37;23.04
74881;BME280;63427;49.654;6.596;2024-03-02T11:40:31;98231.61;;;19.57;22.47
74881;BME280;63427;49.654;6.596;2024-03-02T11:55:02;98202.92;;;21.05;20.48
74881;BME280;63427;49.654;6.596;2024-03-02T11:59:52;98190.89;;;21.76;21.29
74881;BME280;63427;49.654;6.596;2024-03-02T12:04:48;98183.49;;;22.11;20.40
74881;BME280;63427;49.654;6.596;2024-03-02T12:07:08;98180.05;;;22.45;19.93
74881;BME280;63427;49.654;6.596;2024-03-02T12:09:32;98181.92;;;22.78;19.69
74881;BME280;63427;49.654;6.596;2024-03-02T12:14:22;98182.01;;;22.80;19.29
74881;BME280;63427;49.654;6.596;2024-03-02T12:19:12;98174.56;;;23.62;18.21
74881;BME280;63427;49.654;6.596;2024-03-02T12:21:38;98173.83;;;23.51;18.68
74881;BME280;63427;49.654;6.596;2024-03-02T12:24:03;98178.76;;;23.07;18.45
74881;BME280;63427;49.654;6.596;2024-03-02T12:26:28;98180.68;;;22.53;19.26
74881;BME280;63427;49.654;6.596;2024-03-02T12:31:18;98181.49;;;21.99;19.68
74881;BME280;63427;49.654;6.596;2024-03-02T12:33:43;98179.50;;;20.98;19.61
74881;BME280;63427;49.654;6.596;2024-03-02T12:38:33;98175.02;;;23.27;20.41
74881;BME280;63427;49.654;6.596;2024-03-02T12:40:58;98165.11;;;21.85;19.66
74881;BME280;63427;49.654;6.596;2024-03-02T12:43:34;98165.15;;;22.36;19.60
74881;BME280;63427;49.654;6.596;2024-03-02T12:45:48;98159.40;;;23.44;19.06
74881;BME280;63427;49.654;6.596;2024-03-02T12:48:13;98157.78;;;23.34;18.46
74881;BME280;63427;49.654;6.596;2024-03-02T12:50:38;98161.54;;;22.04;19.19
74881;BME280;63427;49.654;6.596;2024-03-02T12:53:14;98159.40;;;22.13;19.22
74881;BME280;63427;49.654;6.596;2024-03-02T12:55:47;98152.33;;;22.79;20.04
74881;BME280;63427;49.654;6.596;2024-03-02T12:57:54;98145.90;;;22.04;20.10
74881;BME280;63427;49.654;6.596;2024-03-02T13:02:43;98145.09;;;23.65;20.32
74881;BME280;63427;49.654;6.596;2024-03-02T13:05:08;98140.35;;;24.21;18.99
74881;BME280;63427;49.654;6.596;2024-03-02T13:10:00;98129.93;;;24.01;18.74
74881;BME280;63427;49.654;6.596;2024-03-02T13:12:25;98149.04;;;21.58;20.21
74881;BME280;63427;49.654;6.596;2024-03-02T13:14:50;98141.57;;;21.30;20.43
74881;BME280;63427;49.654;6.596;2024-03-02T13:17:15;98138.93;;;22.20;20.54
74881;BME280;63427;49.654;6.596;2024-03-02T13:22:04;98128.37;;;22.46;19.97
74881;BME280;63427;49.654;6.596;2024-03-02T13:24:29;98120.09;;;22.71;19.32
74881;BME280;63427;49.654;6.596;2024-03-02T13:26:55;98129.89;;;21.84;19.76
74881;BME280;63427;49.654;6.596;2024-03-02T13:29:20;98121.49;;;22.37;20.84
74881;BME280;63427;49.654;6.596;2024-03-02T13:31:45;98128.56;;;21.91;20.73
74881;BME280;63427;49.654;6.596;2024-03-02T13:34:10;98126.55;;;21.44;20.78
74881;BME280;63427;49.654;6.596;2024-03-02T13:36:35;98126.72;;;21.29;20.70
74881;BME280;63427;49.654;6.596;2024-03-02T13:39:00;98127.37;;;20.89;21.15
74881;BME280;63427;49.654;6.596;2024-03-02T13:41:25;98123.96;;;20.32;21.84
74881;BME280;63427;49.654;6.596;2024-03-02T13:43:50;98125.04;;;20.25;23.06
74881;BME280;63427;49.654;6.596;2024-03-02T13:48:40;98121.27;;;18.74;23.52
74881;BME280;63427;49.654;6.596;2024-03-02T13:51:06;98120.61;;;19.50;22.87
74881;BME280;63427;49.654;6.596;2024-03-02T13:53:31;98117.62;;;20.13;24.34
74881;BME280;63427;49.654;6.596;2024-03-02T13:55:56;98123.68;;;20.51;23.98
74881;BME280;63427;49.654;6.596;2024-03-02T14:00:46;98120.05;;;20.33;23.24
74881;BME280;63427;49.654;6.596;2024-03-02T14:05:37;98119.20;;;19.88;24.38
74881;BME280;63427;49.654;6.596;2024-03-02T14:08:01;98117.86;;;19.35;24.13
74881;BME280;63427;49.654;6.596;2024-03-02T14:10:27;98115.00;;;20.65;24.00
74881;BME280;63427;49.654;6.596;2024-03-02T14:12:52;98112.81;;;20.86;23.57
74881;BME280;63427;49.654;6.596;2024-03-02T14:15:17;98112.46;;;21.47;22.58
74881;BME280;63427;49.654;6.596;2024-03-02T14:17:42;98110.32;;;21.07;23.03
74881;BME280;63427;49.654;6.596;2024-03-02T14:20:08;98110.54;;;20.12;24.14
74881;BME280;63427;49.654;6.596;2024-03-02T14:22:32;98108.68;;;20.20;24.63
74881;BME280;63427;49.654;6.596;2024-03-02T14:24:58;98105.85;;;19.76;24.72
74881;BME280;63427;49.654;6.596;2024-03-02T14:27:23;98101.52;;;20.05;25.06
74881;BME280;63427;49.654;6.596;2024-03-02T14:29:48;98099.97;;;20.10;23.99
74881;BME280;63427;49.654;6.596;2024-03-02T14:32:13;98100.89;;;19.35;24.82
74881;BME280;63427;49.654;6.596;2024-03-02T14:34:38;98101.43;;;18.87;25.14
74881;BME280;63427;49.654;6.596;2024-03-02T14:37:04;98100.49;;;19.43;25.28
74881;BME280;63427;49.654;6.596;2024-03-02T14:39:29;98105.34;;;19.82;25.71
74881;BME280;63427;49.654;6.596;2024-03-02T14:41:54;98099.45;;;19.52;24.58
74881;BME280;63427;49.654;6.596;2024-03-02T14:51:35;98095.41;;;21.26;23.51
74881;BME280;63427;49.654;6.596;2024-03-02T14:54:02;98094.75;;;20.41;23.88
74881;BME280;63427;49.654;6.596;2024-03-02T14:58:50;98091.52;;;19.69;23.86